createdAt,value
2018-08-24T00:04:15.077Z,6.80
2018-08-24T00:09:10.900Z,6.57
2018-08-24T00:14:03.443Z,6.60
2018-08-24T00:18:55.943Z,6.77
2018-08-24T00:23:48.438Z,6.97
2018-08-24T00:28:40.967Z,6.97
2018-08-24T00:33:33.484Z,7.20
2018-08-24T00:38:25.963Z,6.80
2018-08-24T00:43:18.457Z,6.73
2018-08-24T00:48:10.917Z,7.10
2018-08-24T00:53:03.351Z,7.00
2018-08-24T00:57:55.938Z,6.87
2018-08-24T01:02:48.538Z,7.23
2018-08-24T01:07:47.157Z,6.80
2018-08-24T01:12:39.656Z,6.57
2018-08-24T01:17:37.950Z,6.23
2018-08-24T01:22:30.475Z,7.50
2018-08-24T01:27:22.968Z,6.87
2018-08-24T01:32:15.403Z,7.37
2018-08-24T01:37:07.887Z,6.90
2018-08-24T01:42:00.323Z,6.90
2018-08-24T01:46:52.859Z,7.03
2018-08-24T01:51:45.402Z,7.63
2018-08-24T01:56:37.912Z,7.77
2018-08-24T02:01:30.334Z,7.93
2018-08-24T02:06:22.811Z,7.80
2018-08-24T02:11:21.150Z,7.87
2018-08-24T02:16:13.726Z,8.20
2018-08-24T02:21:11.943Z,8.03
2018-08-24T02:26:04.702Z,8.40
2018-08-24T02:30:57.187Z,12.17
2018-08-24T02:35:49.715Z,10.93
2018-08-24T02:40:42.148Z,11.30
2018-08-24T02:45:34.562Z,11.73
2018-08-24T02:50:27.006Z,12.82
2018-08-24T02:55:19.485Z,16.83
2018-08-24T03:00:11.934Z,20.65
2018-08-24T03:05:04.588Z,18.98
2018-08-24T03:09:57.155Z,24.53
2018-08-24T03:14:49.776Z,46.67
2018-08-24T03:19:42.283Z,34.47
2018-08-24T03:24:34.977Z,31.97
2018-08-24T03:29:27.471Z,38.83
2018-08-24T03:34:19.946Z,56.30
2018-08-24T03:39:12.421Z,55.97
2018-08-24T03:44:05.279Z,50.17
2018-08-24T03:48:57.718Z,46.93
2018-08-24T03:53:50.252Z,42.20
2018-08-24T03:58:42.794Z,37.70
2018-08-24T04:03:35.443Z,35.40
2018-08-24T04:08:27.845Z,34.13
2018-08-24T04:13:20.874Z,36.33
2018-08-24T04:18:13.425Z,31.85
2018-08-24T04:23:06.115Z,30.00
2018-08-24T04:27:58.636Z,24.60
2018-08-24T04:32:51.099Z,22.13
2018-08-24T04:37:43.531Z,20.40
2018-08-24T04:42:36.108Z,18.90
2018-08-24T04:47:28.656Z,18.13
2018-08-24T04:52:21.614Z,17.93
2018-08-24T04:57:14.160Z,18.07
2018-08-24T05:02:06.793Z,18.23
2018-08-24T05:06:59.304Z,17.87
2018-08-24T05:11:51.823Z,16.97
2018-08-24T05:16:44.299Z,18.77
2018-08-24T05:21:37.072Z,17.63
2018-08-24T05:26:29.602Z,15.47
2018-08-24T05:31:22.363Z,15.57
2018-08-24T05:36:14.890Z,20.60
2018-08-24T05:41:07.468Z,20.40
2018-08-24T05:45:59.964Z,18.77
2018-08-24T05:50:52.621Z,19.80
2018-08-24T05:55:45.161Z,20.83
2018-08-24T06:00:39.902Z,20.50
2018-08-24T06:05:32.492Z,20.87
2018-08-24T06:10:25.089Z,21.87
2018-08-24T06:15:17.781Z,21.57
2018-08-24T06:20:10.484Z,23.83
2018-08-24T06:25:02.981Z,24.53
2018-08-24T06:29:55.499Z,24.60
2018-08-24T06:34:47.968Z,20.17
2018-08-24T06:39:40.944Z,20.10
2018-08-24T06:44:33.781Z,18.87
2018-08-24T06:49:26.307Z,18.40
2018-08-24T06:54:22.727Z,18.97
2018-08-24T06:59:15.310Z,17.83
2018-08-24T07:04:07.898Z,16.17
2018-08-24T07:09:00.431Z,15.77
2018-08-24T07:13:52.887Z,14.63
2018-08-24T07:18:45.480Z,13.20
2018-08-24T07:23:37.965Z,12.83
2018-08-24T07:28:30.644Z,11.20
2018-08-24T07:33:23.234Z,12.10
2018-08-24T07:38:15.760Z,11.80
2018-08-24T07:43:08.281Z,12.43
2018-08-24T07:48:01.114Z,12.83
2018-08-24T07:52:53.683Z,12.33
2018-08-24T07:57:46.212Z,12.33
2018-08-24T08:02:45.275Z,11.45
2018-08-24T08:07:37.726Z,12.47
2018-08-24T08:12:30.285Z,14.87
2018-08-24T08:17:22.938Z,14.07
2018-08-24T08:22:15.362Z,14.27
2018-08-24T08:27:07.905Z,13.70
2018-08-24T08:32:00.392Z,11.80
2018-08-24T08:36:53.025Z,11.13
2018-08-24T08:41:45.495Z,9.63
2018-08-24T08:46:38.052Z,9.20
2018-08-24T08:51:31.232Z,8.85
2018-08-24T08:56:23.827Z,6.57
2018-08-24T09:01:16.312Z,4.92
2018-08-24T09:06:09.014Z,3.80
2018-08-24T09:11:01.518Z,3.80
2018-08-24T09:15:54.236Z,4.00
2018-08-24T09:20:52.362Z,4.17
2018-08-24T09:25:50.958Z,3.83
2018-08-24T09:31:02.253Z,3.02
2018-08-24T09:35:54.795Z,3.67
2018-08-24T09:40:53.014Z,3.30
2018-08-24T09:45:45.520Z,3.27
2018-08-24T09:50:43.689Z,2.93
2018-08-24T09:55:39.386Z,3.80
2018-08-24T10:00:37.602Z,4.10
2018-08-24T10:05:35.871Z,4.10
2018-08-24T10:10:28.304Z,3.60
2018-08-24T10:15:20.880Z,3.97
2018-08-24T10:20:13.329Z,5.03
2018-08-24T10:25:05.799Z,3.90
2018-08-24T10:29:58.377Z,4.50
2018-08-24T10:34:50.831Z,4.30
2018-08-24T10:39:43.536Z,3.80
2018-08-24T10:44:36.000Z,4.33
2018-08-24T10:49:28.592Z,4.67
2018-08-24T10:54:21.054Z,4.60
2018-08-24T10:59:13.504Z,4.20
2018-08-24T11:04:08.026Z,4.60
2018-08-24T11:09:00.595Z,4.75
2018-08-24T11:13:53.098Z,4.63
2018-08-24T11:18:45.631Z,3.97
2018-08-24T11:23:38.233Z,3.40
2018-08-24T11:28:30.728Z,3.87
2018-08-24T11:33:23.302Z,3.97
2018-08-24T11:38:15.844Z,3.80
2018-08-24T11:43:08.394Z,4.07
2018-08-24T11:48:00.997Z,4.00
2018-08-24T11:52:53.602Z,4.50
2018-08-24T11:57:46.093Z,4.50
2018-08-24T12:02:38.686Z,4.73
2018-08-24T12:07:31.140Z,4.70
2018-08-24T12:12:23.685Z,4.57
2018-08-24T12:17:23.950Z,4.40
2018-08-24T12:22:16.397Z,5.40
2018-08-24T12:27:09.018Z,5.40
2018-08-24T12:32:01.405Z,6.20
2018-08-24T12:44:22.358Z,5.93
2018-08-24T12:49:15.425Z,6.42
2018-08-24T12:54:08.233Z,5.80
2018-08-24T12:59:00.733Z,6.33
2018-08-24T13:03:53.297Z,6.27
2018-08-24T13:08:45.818Z,6.17
2018-08-24T13:13:38.351Z,6.93
2018-08-24T13:18:30.895Z,6.70
2018-08-24T13:23:23.442Z,7.03
2018-08-24T13:28:19.466Z,7.03
2018-08-24T13:33:12.095Z,7.60
2018-08-24T13:38:05.095Z,7.33
2018-08-24T13:42:57.547Z,7.00
2018-08-24T13:47:50.082Z,7.05
2018-08-24T13:52:42.540Z,6.67
2018-08-24T13:57:35.016Z,6.87
2018-08-24T14:02:27.522Z,7.57
2018-08-24T14:07:20.068Z,7.73
2018-08-24T14:12:12.531Z,7.27
2018-08-24T14:17:05.079Z,7.07
2018-08-24T14:21:57.608Z,7.10
2018-08-24T14:26:50.149Z,7.20
2018-08-24T14:31:42.702Z,7.33
2018-08-24T14:36:35.171Z,7.40
2018-08-24T14:41:27.635Z,7.93
2018-08-24T14:46:20.138Z,7.43
2018-08-24T14:51:12.634Z,7.53
2018-08-24T14:56:05.346Z,7.33
2018-08-24T15:00:57.876Z,7.93
2018-08-24T15:05:50.496Z,7.13
2018-08-24T15:10:43.017Z,7.00
2018-08-24T15:15:35.582Z,6.80
2018-08-24T15:20:28.212Z,7.27
2018-08-24T15:25:20.799Z,6.87
2018-08-24T15:30:13.215Z,6.73
2018-08-24T15:35:06.140Z,6.90
2018-08-24T15:39:58.681Z,7.03
2018-08-24T15:44:51.212Z,7.27
2018-08-24T15:49:43.753Z,7.27
2018-08-24T15:54:36.287Z,7.30
2018-08-24T15:59:28.786Z,7.20
2018-08-24T16:04:21.226Z,6.80
2018-08-24T16:09:13.935Z,6.57
2018-08-24T16:14:06.382Z,7.53
2018-08-24T16:26:25.922Z,7.05
2018-08-24T16:31:18.367Z,7.47
2018-08-24T16:36:10.908Z,6.60
2018-08-24T16:41:03.408Z,6.53
2018-08-24T16:45:55.940Z,7.07
2018-08-24T16:50:48.710Z,6.30
2018-08-24T16:55:41.178Z,6.27
2018-08-24T17:00:33.764Z,6.33
2018-08-24T17:05:26.285Z,6.00
2018-08-24T17:10:18.738Z,5.40
2018-08-24T17:15:11.194Z,5.37
2018-08-24T17:20:04.374Z,5.23
2018-08-24T17:24:56.927Z,5.00
2018-08-24T17:29:49.415Z,4.67
2018-08-24T17:34:42.080Z,4.50
2018-08-24T17:39:34.572Z,4.23
2018-08-24T17:44:27.224Z,3.83
2018-08-24T17:49:19.740Z,4.27
2018-08-24T17:54:12.401Z,4.10
2018-08-24T17:59:04.952Z,4.20
2018-08-24T18:03:57.524Z,4.43
2018-08-24T18:08:50.326Z,4.03
2018-08-24T18:13:42.754Z,4.63
2018-08-24T18:18:35.287Z,4.63
2018-08-24T18:23:27.862Z,4.67
2018-08-24T18:28:20.441Z,4.83
2018-08-24T18:33:13.023Z,4.33
2018-08-24T18:38:05.488Z,4.67
2018-08-24T18:42:57.960Z,4.63
2018-08-24T18:47:50.491Z,4.57
2018-08-24T18:52:43.001Z,4.63
2018-08-24T18:57:35.462Z,4.53
2018-08-24T19:02:27.970Z,5.10
2018-08-24T19:07:20.428Z,4.67
2018-08-24T19:12:18.827Z,4.37
2018-08-24T19:17:16.881Z,4.13
2018-08-24T19:22:09.493Z,4.00
2018-08-24T19:27:02.061Z,4.33
2018-08-24T19:31:54.506Z,3.90
2018-08-24T19:36:46.968Z,4.07
2018-08-24T19:41:45.562Z,3.92
2018-08-24T19:46:38.028Z,3.80
2018-08-24T19:51:30.536Z,3.83
2018-08-24T19:56:22.966Z,4.00
2018-08-24T20:01:15.746Z,4.37
2018-08-24T20:06:13.902Z,4.47
2018-08-24T20:11:07.011Z,4.33
2018-08-24T20:16:05.423Z,4.10
2018-08-24T20:20:57.858Z,4.60
2018-08-24T20:25:50.423Z,4.40
2018-08-24T20:30:43.032Z,4.30
2018-08-24T20:35:36.672Z,4.50
2018-08-24T20:40:29.441Z,4.03
2018-08-24T20:45:21.871Z,4.00
2018-08-24T20:50:14.374Z,4.03
2018-08-24T20:55:06.860Z,3.70
2018-08-24T20:59:59.464Z,3.73
2018-08-24T21:04:51.946Z,3.42
2018-08-24T21:09:44.420Z,3.57
2018-08-24T21:14:36.935Z,3.43
2018-08-24T21:19:29.433Z,3.57
2018-08-24T21:24:21.928Z,3.47
2018-08-24T21:29:14.458Z,3.77
2018-08-24T21:34:06.973Z,3.73
2018-08-24T21:38:59.429Z,4.87
2018-08-24T21:43:52.095Z,4.20
2018-08-24T21:48:44.692Z,3.37
2018-08-24T21:53:37.333Z,3.17
2018-08-24T21:58:29.826Z,3.70
2018-08-24T22:03:22.257Z,3.80
2018-08-24T22:08:14.808Z,4.00
2018-08-24T22:13:07.323Z,3.73
2018-08-24T22:17:59.948Z,4.10
2018-08-24T22:22:52.448Z,3.60
2018-08-24T22:27:44.937Z,3.83
2018-08-24T22:32:37.458Z,3.40
2018-08-24T22:37:29.964Z,3.17
2018-08-24T22:42:22.448Z,3.10
2018-08-24T22:47:14.893Z,3.17
2018-08-24T22:52:07.360Z,3.40
2018-08-24T22:56:59.888Z,3.00
2018-08-24T23:01:52.353Z,2.80
2018-08-24T23:06:44.828Z,2.40
2018-08-24T23:11:37.415Z,2.70
2018-08-24T23:16:29.843Z,2.60
2018-08-24T23:21:22.353Z,2.27
2018-08-24T23:26:14.778Z,2.43
2018-08-24T23:31:07.332Z,2.23
2018-08-24T23:35:59.865Z,2.37
2018-08-24T23:40:52.369Z,2.30
2018-08-24T23:45:45.075Z,2.50
2018-08-24T23:50:37.619Z,2.50
2018-08-24T23:55:30.075Z,2.30
